createdAt,value
2019-06-10T00:00:59.033Z,29.11
2019-06-10T00:03:31.798Z,29.11
2019-06-10T00:06:04.090Z,29.10
2019-06-10T00:08:36.717Z,29.49
2019-06-10T00:11:08.491Z,29.50
2019-06-10T00:13:41.426Z,28.56
2019-06-10T00:16:13.009Z,28.42
2019-06-10T00:18:45.808Z,28.69
2019-06-10T00:21:17.892Z,30.13
2019-06-10T00:23:51.617Z,30.13
2019-06-10T00:26:22.317Z,30.79
2019-06-10T00:28:54.086Z,31.02
2019-06-10T00:31:25.920Z,31.22
2019-06-10T00:33:58.623Z,31.50
2019-06-10T00:36:31.044Z,31.35
2019-06-10T00:39:04.962Z,31.90
2019-06-10T00:41:36.250Z,32.16
2019-06-10T00:44:08.403Z,32.97
2019-06-10T00:46:40.850Z,32.97
2019-06-10T00:49:14.596Z,32.58
2019-06-10T00:51:46.164Z,32.69
2019-06-10T00:54:17.511Z,32.69
2019-06-10T00:56:48.826Z,33.49
2019-06-10T00:59:22.092Z,33.21
2019-06-10T01:01:53.276Z,33.30
2019-06-10T01:04:24.718Z,33.29
2019-06-10T01:06:56.120Z,32.53
2019-06-10T01:09:27.729Z,31.42
2019-06-10T01:12:01.169Z,32.78
2019-06-10T01:14:32.962Z,32.59
2019-06-10T01:17:05.484Z,32.59
2019-06-10T01:19:36.837Z,31.89
2019-06-10T01:22:10.671Z,30.12
2019-06-10T01:24:41.464Z,30.12
2019-06-10T01:27:15.171Z,30.33
2019-06-10T01:29:46.973Z,29.47
2019-06-10T01:32:18.404Z,29.47
2019-06-10T01:34:50.846Z,29.46
2019-06-10T01:37:22.768Z,29.99
2019-06-10T01:39:54.140Z,30.21
2019-06-10T01:42:25.898Z,30.91
2019-06-10T01:44:57.500Z,30.91
2019-06-10T01:47:30.845Z,31.33
2019-06-10T01:50:02.071Z,31.63
2019-06-10T01:52:34.154Z,30.20
2019-06-10T01:55:07.480Z,30.21
2019-06-10T01:57:41.123Z,29.88
2019-06-10T02:00:19.502Z,30.39
2019-06-10T02:02:47.358Z,29.75
2019-06-10T02:05:20.286Z,29.32
2019-06-10T02:07:52.837Z,29.23
2019-06-10T02:10:24.356Z,28.57
2019-06-10T02:12:56.113Z,28.57
2019-06-10T02:15:27.579Z,29.42
2019-06-10T02:18:01.145Z,29.37
2019-06-10T02:20:33.447Z,28.11
2019-06-10T02:23:05.160Z,28.49
2019-06-10T02:25:36.732Z,28.49
2019-06-10T02:28:08.317Z,28.92
2019-06-10T02:30:49.281Z,28.92
2019-06-10T02:33:17.383Z,29.23
2019-06-10T02:35:49.143Z,28.81
2019-06-10T02:38:32.144Z,28.81
2019-06-10T02:40:54.015Z,28.39
2019-06-10T02:43:32.018Z,27.50
2019-06-10T02:46:03.906Z,26.93
2019-06-10T02:48:35.312Z,27.49
2019-06-10T02:51:08.439Z,27.29
2019-06-10T02:53:43.050Z,27.29
2019-06-10T02:56:14.759Z,27.07
2019-06-10T02:58:47.228Z,26.97
2019-06-10T03:01:21.457Z,26.82
2019-06-10T03:03:54.359Z,26.71
2019-06-10T03:06:35.110Z,26.41
2019-06-10T03:09:03.880Z,25.67
2019-06-10T03:11:37.046Z,25.21
2019-06-10T03:14:08.590Z,24.67
2019-06-10T03:16:45.572Z,24.29
2019-06-10T03:19:29.954Z,23.93
2019-06-10T03:21:52.151Z,23.13
2019-06-10T03:24:25.310Z,23.13
2019-06-10T03:26:58.157Z,22.79
2019-06-10T03:29:29.935Z,23.10
2019-06-10T03:32:05.059Z,23.10
2019-06-10T03:34:41.586Z,23.00
2019-06-10T03:37:08.168Z,22.21
2019-06-10T03:39:42.529Z,22.21
2019-06-10T03:42:12.953Z,22.25
2019-06-10T03:44:45.102Z,22.40
2019-06-10T03:47:17.076Z,20.89
2019-06-10T03:49:52.505Z,21.06
2019-06-10T03:52:24.059Z,21.12
2019-06-10T03:54:55.631Z,21.41
2019-06-10T03:57:28.605Z,20.32
2019-06-10T04:00:03.530Z,20.34
2019-06-10T04:02:33.979Z,20.34
2019-06-10T04:05:06.184Z,19.84
2019-06-10T04:07:37.621Z,18.32
2019-06-10T04:10:09.634Z,18.32
2019-06-10T04:12:43.289Z,18.60
2019-06-10T04:15:14.782Z,18.84
2019-06-10T04:17:46.248Z,18.84
2019-06-10T04:20:18.121Z,18.80
2019-06-10T04:22:49.451Z,18.65
2019-06-10T04:25:24.682Z,18.46
2019-06-10T04:27:55.274Z,18.36
2019-06-10T04:30:28.143Z,18.46
2019-06-10T04:33:02.152Z,19.14
2019-06-10T04:35:33.668Z,19.14
2019-06-10T04:38:05.606Z,19.14
2019-06-10T04:40:37.003Z,19.09
2019-06-10T04:43:12.288Z,18.94
2019-06-10T04:45:43.682Z,18.75
2019-06-10T04:48:15.201Z,18.07
2019-06-10T04:50:46.971Z,18.07
2019-06-10T04:53:18.749Z,18.51
2019-06-10T04:55:52.100Z,18.11
2019-06-10T04:58:27.036Z,18.42
2019-06-10T05:00:56.988Z,17.51
2019-06-10T05:03:29.588Z,17.51
2019-06-10T05:06:03.427Z,18.05
2019-06-10T05:08:34.952Z,18.26
2019-06-10T05:11:06.514Z,18.13
2019-06-10T05:13:38.279Z,17.47
2019-06-10T05:16:12.525Z,17.78
2019-06-10T05:18:44.818Z,18.07
2019-06-10T05:21:16.277Z,17.79
2019-06-10T05:23:48.002Z,18.07
2019-06-10T05:26:20.043Z,17.08
2019-06-10T05:28:52.888Z,17.08
2019-06-10T05:31:27.351Z,16.86
2019-06-10T05:33:57.779Z,17.02
2019-06-10T05:36:31.057Z,17.79
2019-06-10T05:39:02.818Z,17.05
2019-06-10T05:41:35.177Z,16.52
2019-06-10T05:44:06.630Z,16.94
2019-06-10T05:46:38.561Z,16.23
2019-06-10T05:49:12.492Z,16.23
2019-06-10T05:51:44.530Z,16.17
2019-06-10T05:54:16.213Z,16.73
2019-06-10T05:56:47.860Z,16.15
2019-06-10T05:59:19.242Z,15.31
2019-06-10T06:01:53.944Z,16.17
2019-06-10T06:04:25.062Z,16.17
2019-06-10T06:06:57.582Z,15.94
2019-06-10T06:09:29.460Z,14.63
2019-06-10T06:12:02.519Z,14.63
2019-06-10T06:14:36.144Z,14.77
2019-06-10T06:17:07.741Z,15.65
2019-06-10T06:19:39.055Z,15.65
2019-06-10T06:22:12.656Z,14.69
2019-06-10T06:24:43.966Z,14.79
2019-06-10T06:27:15.605Z,15.24
2019-06-10T06:29:47.913Z,15.12
2019-06-10T06:32:19.499Z,14.96
2019-06-10T06:34:52.693Z,13.95
2019-06-10T06:37:24.674Z,13.95
2019-06-10T06:39:56.062Z,14.59
2019-06-10T06:42:27.653Z,15.07
2019-06-10T06:44:59.730Z,14.79
2019-06-10T06:47:34.057Z,14.38
2019-06-10T06:50:04.746Z,14.90
2019-06-10T06:53:13.964Z,14.68
2019-06-10T06:55:09.845Z,14.84
2019-06-10T06:57:43.170Z,15.05
2019-06-10T07:00:41.028Z,15.30
2019-06-10T07:02:48.148Z,15.30
2019-06-10T07:05:19.751Z,15.30
2019-06-10T07:07:52.735Z,14.15
2019-06-10T07:10:24.831Z,14.65
2019-06-10T07:12:59.079Z,14.39
2019-06-10T07:15:46.929Z,14.58
2019-06-10T07:18:18.333Z,14.28
2019-06-10T07:20:49.726Z,14.33
2019-06-10T07:23:22.512Z,14.38
2019-06-10T07:25:54.391Z,14.59
2019-06-10T07:28:26.365Z,14.87
2019-06-10T07:30:57.974Z,14.64
2019-06-10T07:33:29.735Z,14.76
2019-06-10T07:36:03.170Z,14.76
2019-06-10T07:38:38.961Z,14.50
2019-06-10T07:41:09.394Z,14.50
2019-06-10T07:43:46.504Z,14.97
2019-06-10T07:46:14.825Z,15.44
2019-06-10T07:48:48.641Z,15.44
2019-06-10T07:51:22.343Z,15.12
2019-06-10T07:53:53.863Z,15.12
2019-06-10T07:56:25.408Z,14.01
2019-06-10T07:58:57.365Z,13.81
2019-06-10T08:01:29.018Z,13.69
2019-06-10T08:04:02.953Z,13.32
2019-06-10T08:06:36.099Z,13.15
2019-06-10T08:09:08.047Z,12.88
2019-06-10T08:11:39.822Z,12.88
2019-06-10T08:14:13.126Z,13.43
2019-06-10T08:16:46.698Z,13.58
2019-06-10T08:19:33.358Z,13.61
2019-06-10T08:21:53.644Z,12.78
2019-06-10T08:24:25.011Z,12.68
2019-06-10T08:26:56.641Z,13.19
2019-06-10T08:29:28.497Z,13.39
2019-06-10T08:32:03.015Z,13.27
2019-06-10T08:34:33.779Z,13.64
2019-06-10T08:37:05.285Z,14.26
2019-06-10T08:39:38.157Z,13.97
2019-06-10T08:42:09.818Z,13.94
2019-06-10T08:44:43.506Z,13.94
2019-06-10T08:47:14.808Z,13.94
2019-06-10T08:49:48.811Z,14.14
2019-06-10T08:52:19.411Z,13.66
2019-06-10T08:54:54.143Z,14.09
2019-06-10T08:57:24.262Z,14.09
2019-06-10T08:59:55.735Z,13.76
2019-06-10T09:02:27.300Z,13.80
2019-06-10T09:04:58.994Z,13.80
2019-06-10T09:07:32.264Z,13.31
2019-06-10T09:10:05.895Z,13.19
2019-06-10T09:12:38.487Z,13.15
2019-06-10T09:15:13.039Z,13.15
2019-06-10T09:17:49.345Z,13.09
2019-06-10T09:20:22.994Z,13.42
2019-06-10T09:23:13.938Z,12.55
2019-06-10T09:25:28.203Z,12.55
2019-06-10T09:28:02.218Z,12.36
2019-06-10T09:30:36.732Z,12.06
2019-06-10T09:33:09.007Z,12.46
2019-06-10T09:35:42.552Z,12.77
2019-06-10T09:38:14.283Z,12.59
2019-06-10T09:41:00.875Z,12.16
2019-06-10T09:43:26.922Z,12.00
2019-06-10T09:45:58.843Z,12.09
2019-06-10T09:48:33.305Z,11.56
2019-06-10T09:51:04.485Z,11.56
2019-06-10T09:53:42.798Z,11.67
2019-06-10T09:56:09.533Z,12.32
2019-06-10T09:58:44.722Z,12.88
2019-06-10T10:01:14.558Z,12.67
2019-06-10T10:03:50.206Z,12.55
2019-06-10T10:06:19.620Z,12.58
2019-06-10T10:08:57.536Z,12.83
2019-06-10T10:11:28.264Z,12.42
2019-06-10T10:13:58.547Z,12.37
2019-06-10T10:16:33.906Z,12.18
2019-06-10T10:19:06.659Z,12.09
2019-06-10T10:21:41.242Z,12.62
2019-06-10T10:24:14.953Z,12.94
2019-06-10T10:26:48.585Z,12.65
2019-06-10T10:29:19.227Z,12.65
2019-06-10T10:31:52.733Z,12.55
2019-06-10T10:34:24.775Z,12.73
2019-06-10T10:36:57.363Z,13.04
2019-06-10T10:39:29.313Z,12.86
2019-06-10T10:42:04.007Z,12.89
2019-06-10T10:44:35.781Z,13.03
2019-06-10T10:47:07.645Z,12.63
2019-06-10T10:49:39.562Z,12.63
2019-06-10T10:52:12.975Z,12.87
2019-06-10T10:54:46.183Z,12.47
2019-06-10T10:57:18.209Z,12.47
2019-06-10T10:59:52.455Z,12.59
2019-06-10T11:02:23.890Z,12.74
2019-06-10T11:04:56.999Z,12.51
2019-06-10T11:07:28.935Z,12.79
2019-06-10T11:10:00.456Z,12.26
2019-06-10T11:12:34.308Z,12.70
2019-06-10T11:15:06.873Z,12.87
2019-06-10T11:17:38.864Z,12.58
2019-06-10T11:20:12.991Z,12.73
2019-06-10T11:22:45.734Z,12.46
2019-06-10T11:25:17.472Z,11.88
2019-06-10T11:27:50.013Z,11.88
2019-06-10T11:30:22.408Z,12.21
2019-06-10T11:32:57.714Z,12.48
2019-06-10T11:35:27.380Z,12.25
2019-06-10T11:37:58.688Z,12.16
2019-06-10T11:40:34.217Z,12.63
2019-06-10T11:43:05.474Z,12.63
2019-06-10T11:45:37.242Z,12.37
2019-06-10T11:48:08.965Z,12.62
2019-06-10T11:50:42.845Z,12.76
2019-06-10T11:53:14.834Z,12.37
2019-06-10T11:55:47.611Z,12.23
2019-06-10T11:58:19.191Z,12.23
2019-06-10T12:00:54.306Z,12.74
2019-06-10T12:03:23.758Z,13.15
2019-06-10T12:05:57.774Z,12.97
2019-06-10T12:08:32.688Z,12.77
2019-06-10T12:11:03.142Z,12.78
2019-06-10T12:13:34.917Z,12.80
2019-06-10T12:16:51.500Z,12.61
2019-06-10T12:18:42.641Z,12.78
2019-06-10T12:21:14.194Z,12.91
2019-06-10T12:23:46.510Z,13.08
2019-06-10T12:26:18.159Z,12.99
2019-06-10T12:28:50.704Z,12.88
2019-06-10T12:31:23.414Z,12.90
2019-06-10T12:33:57.279Z,13.26
2019-06-10T12:36:28.429Z,13.02
2019-06-10T12:39:06.792Z,13.07
2019-06-10T12:41:35.179Z,13.07
2019-06-10T12:44:06.518Z,13.52
2019-06-10T12:46:38.121Z,13.40
2019-06-10T12:49:09.641Z,13.55
2019-06-10T12:51:41.589Z,13.31
2019-06-10T12:54:13.213Z,13.40
2019-06-10T12:56:45.041Z,13.43
2019-06-10T12:59:16.675Z,13.43
2019-06-10T13:01:49.623Z,13.81
2019-06-10T13:04:21.189Z,13.75
2019-06-10T13:06:53.523Z,13.89
2019-06-10T13:09:26.392Z,13.89
2019-06-10T13:11:58.343Z,13.52
2019-06-10T13:14:32.640Z,13.74
2019-06-10T13:17:05.774Z,14.29
2019-06-10T13:19:37.456Z,14.25
2019-06-10T13:22:08.979Z,14.25
2019-06-10T13:24:42.208Z,14.49
2019-06-10T13:27:13.522Z,14.46
2019-06-10T13:29:45.252Z,14.46
2019-06-10T13:32:16.912Z,14.67
2019-06-10T13:34:48.554Z,15.23
2019-06-10T13:37:19.936Z,15.02
2019-06-10T13:39:52.403Z,15.02
2019-06-10T13:42:24.131Z,15.12
2019-06-10T13:44:57.516Z,15.12
2019-06-10T13:47:29.197Z,15.31
2019-06-10T13:50:01.626Z,16.55
2019-06-10T13:52:35.756Z,17.12
2019-06-10T13:55:09.640Z,18.09
2019-06-10T13:57:42.659Z,18.77
2019-06-10T14:00:14.899Z,18.77
2019-06-10T14:02:46.457Z,18.67
2019-06-10T14:05:19.236Z,18.97
2019-06-10T14:07:52.114Z,19.73
2019-06-10T14:10:24.891Z,19.73
2019-06-10T14:12:56.371Z,19.64
2019-06-10T14:15:29.648Z,19.87
2019-06-10T14:18:01.833Z,20.16
2019-06-10T14:20:36.686Z,20.30
2019-06-10T14:23:08.030Z,20.39
2019-06-10T14:25:42.409Z,20.42
2019-06-10T14:28:32.451Z,20.62
2019-06-10T14:30:47.310Z,20.80
2019-06-10T14:33:18.868Z,21.07
2019-06-10T14:35:53.107Z,21.33
2019-06-10T14:38:23.653Z,21.41
2019-06-10T14:40:55.175Z,21.41
2019-06-10T14:43:26.727Z,21.85
2019-06-10T14:45:58.303Z,21.68
2019-06-10T14:48:29.928Z,21.56
2019-06-10T14:51:03.301Z,21.65
2019-06-10T14:53:34.569Z,22.40
2019-06-10T14:56:07.607Z,22.43
2019-06-10T14:58:39.477Z,22.48
2019-06-10T15:01:13.468Z,22.76
2019-06-10T15:03:44.682Z,23.26
2019-06-10T15:06:16.462Z,24.06
2019-06-10T15:08:54.380Z,24.27
2019-06-10T15:11:27.696Z,24.27
2019-06-10T15:13:59.373Z,24.03
2019-06-10T15:16:33.435Z,24.41
2019-06-10T15:19:14.659Z,24.41
2019-06-10T15:21:38.050Z,24.36
2019-06-10T15:24:09.888Z,24.36
2019-06-10T15:26:42.272Z,24.82
2019-06-10T15:29:17.023Z,24.35
2019-06-10T15:31:47.931Z,24.85
2019-06-10T15:34:20.055Z,24.85
2019-06-10T15:36:52.744Z,24.05
2019-06-10T15:39:24.416Z,21.81
2019-06-10T15:41:55.847Z,21.75
2019-06-10T15:44:47.877Z,23.76
2019-06-10T15:47:02.916Z,23.76
2019-06-10T15:49:33.766Z,23.38
2019-06-10T15:52:06.201Z,22.63
2019-06-10T15:54:37.784Z,22.14
2019-06-10T15:57:22.751Z,21.92
2019-06-10T15:59:43.137Z,21.94
2019-06-10T16:02:17.913Z,21.94
2019-06-10T16:04:57.506Z,22.07
2019-06-10T16:07:29.153Z,23.58
2019-06-10T16:10:02.717Z,23.56
2019-06-10T16:12:33.863Z,23.75
2019-06-10T16:15:05.456Z,23.75
2019-06-10T16:17:37.258Z,23.17
2019-06-10T16:20:09.392Z,23.17
2019-06-10T16:22:42.820Z,23.17
2019-06-10T16:25:14.345Z,23.31
2019-06-10T16:27:50.956Z,24.09
2019-06-10T16:30:20.826Z,24.09
2019-06-10T16:32:53.127Z,24.85
2019-06-10T16:35:26.798Z,25.29
2019-06-10T16:37:57.661Z,25.84
2019-06-10T16:40:29.048Z,25.84
2019-06-10T16:43:00.591Z,25.67
2019-06-10T16:45:34.015Z,25.67
2019-06-10T16:48:05.941Z,24.70
2019-06-10T16:50:37.482Z,24.65
2019-06-10T16:53:09.229Z,24.30
2019-06-10T16:55:40.976Z,24.22
2019-06-10T16:58:13.003Z,24.31
2019-06-10T17:00:44.616Z,24.01
2019-06-10T17:03:16.704Z,24.53
2019-06-10T17:05:48.319Z,25.06
2019-06-10T17:08:20.610Z,24.77
2019-06-10T17:10:53.104Z,24.78
2019-06-10T17:13:27.196Z,24.78
2019-06-10T17:15:59.736Z,24.54
2019-06-10T17:18:33.622Z,24.29
2019-06-10T17:21:07.547Z,24.07
2019-06-10T17:23:39.103Z,23.59
2019-06-10T17:26:10.752Z,23.59
2019-06-10T17:28:42.844Z,23.66
2019-06-10T17:31:15.199Z,23.66
2019-06-10T17:33:46.892Z,23.78
2019-06-10T17:36:18.625Z,23.77
2019-06-10T17:38:52.323Z,23.77
2019-06-10T17:41:26.261Z,23.97
2019-06-10T17:43:56.683Z,23.97
2019-06-10T17:46:29.484Z,24.22
2019-06-10T17:49:04.205Z,24.15
2019-06-10T17:51:36.309Z,24.23
2019-06-10T17:54:08.050Z,24.23
2019-06-10T17:56:39.485Z,24.65
2019-06-10T17:59:12.834Z,24.42
2019-06-10T18:01:44.216Z,24.42
2019-06-10T18:04:15.711Z,25.08
2019-06-10T18:06:47.271Z,25.44
2019-06-10T18:09:19.114Z,25.97
2019-06-10T18:11:50.564Z,25.97
2019-06-10T18:14:22.924Z,26.18
2019-06-10T18:16:55.208Z,26.14
2019-06-10T18:19:26.758Z,26.51
2019-06-10T18:21:58.623Z,26.21
2019-06-10T18:24:30.882Z,25.38
2019-06-10T18:27:02.746Z,25.33
2019-06-10T18:29:36.930Z,25.33
2019-06-10T18:32:07.872Z,25.29
2019-06-10T18:34:39.095Z,25.13
2019-06-10T18:37:10.649Z,25.13
2019-06-10T18:39:43.008Z,25.13
2019-06-10T18:42:14.705Z,25.80
2019-06-10T18:44:46.187Z,26.31
2019-06-10T18:47:17.728Z,26.45
2019-06-10T18:49:49.173Z,26.49
2019-06-10T18:52:23.186Z,26.49
2019-06-10T18:54:53.926Z,25.86
2019-06-10T18:57:28.784Z,26.18
2019-06-10T19:00:02.872Z,26.97
2019-06-10T19:02:34.450Z,26.73
2019-06-10T19:05:06.679Z,26.73
2019-06-10T19:07:38.708Z,26.81
2019-06-10T19:10:12.976Z,27.01
2019-06-10T19:12:44.750Z,27.15
2019-06-10T19:15:16.597Z,27.18
2019-06-10T19:17:48.149Z,26.15
2019-06-10T19:20:20.055Z,26.15
2019-06-10T19:22:52.719Z,26.38
2019-06-10T19:25:23.991Z,26.38
2019-06-10T19:27:55.646Z,26.75
2019-06-10T19:30:34.039Z,25.62
2019-06-10T19:33:05.923Z,25.19
2019-06-10T19:35:42.556Z,25.03
2019-06-10T19:38:13.714Z,25.38
2019-06-10T19:40:46.833Z,25.12
2019-06-10T19:43:27.639Z,25.40
2019-06-10T19:45:59.897Z,25.35
2019-06-10T19:48:35.385Z,25.64
2019-06-10T19:51:05.926Z,26.33
2019-06-10T19:53:37.373Z,26.33
2019-06-10T19:56:09.064Z,26.08
2019-06-10T19:58:42.985Z,25.76
2019-06-10T20:01:13.828Z,26.01
2019-06-10T20:03:54.541Z,26.36
2019-06-10T20:06:32.297Z,26.47
2019-06-10T20:09:03.880Z,26.47
2019-06-10T20:11:38.323Z,27.15
2019-06-10T20:14:12.690Z,27.24
2019-06-10T20:16:45.952Z,27.50
2019-06-10T20:19:17.219Z,27.20
2019-06-10T20:21:51.920Z,26.82
2019-06-10T20:24:23.710Z,28.29
2019-06-10T20:26:55.417Z,28.12
2019-06-10T20:29:27.759Z,27.87
2019-06-10T20:31:59.539Z,27.49
2019-06-10T20:34:31.616Z,27.49
2019-06-10T20:37:07.411Z,26.83
2019-06-10T20:39:40.567Z,26.50
2019-06-10T20:42:12.954Z,26.01
2019-06-10T20:44:45.985Z,26.01
2019-06-10T20:47:17.955Z,25.91
2019-06-10T20:49:51.850Z,25.75
2019-06-10T20:52:22.837Z,25.56
2019-06-10T20:54:54.299Z,25.72
2019-06-10T20:57:26.100Z,25.73
2019-06-10T20:59:57.969Z,25.73
2019-06-10T21:02:30.313Z,25.84
2019-06-10T21:05:06.120Z,25.91
2019-06-10T21:07:39.211Z,26.68
2019-06-10T21:10:12.854Z,26.68
2019-06-10T21:12:49.787Z,26.84
2019-06-10T21:15:23.316Z,27.20
2019-06-10T21:17:54.840Z,27.24
2019-06-10T21:20:33.118Z,27.11
2019-06-10T21:23:05.846Z,27.11
2019-06-10T21:25:43.151Z,27.73
2019-06-10T21:28:14.259Z,27.73
2019-06-10T21:30:58.634Z,27.40
2019-06-10T21:33:37.793Z,27.32
2019-06-10T21:36:15.652Z,27.69
2019-06-10T21:38:49.347Z,27.69
2019-06-10T21:41:22.886Z,27.41
2019-06-10T21:43:59.206Z,27.41
2019-06-10T21:46:27.785Z,27.17
2019-06-10T21:48:59.545Z,27.33
2019-06-10T21:51:34.149Z,27.33
2019-06-10T21:54:12.264Z,28.25
2019-06-10T21:56:44.531Z,28.25
2019-06-10T21:59:16.663Z,28.12
2019-06-10T22:01:49.187Z,28.41
2019-06-10T22:04:22.466Z,28.73
2019-06-10T22:06:55.986Z,28.87
2019-06-10T22:09:27.221Z,28.95
2019-06-10T22:11:58.842Z,29.60
2019-06-10T22:14:32.839Z,29.63
2019-06-10T22:17:03.934Z,29.63
2019-06-10T22:19:35.451Z,29.26
2019-06-10T22:22:07.166Z,29.61
2019-06-10T22:24:38.842Z,29.73
2019-06-10T22:27:10.236Z,29.73
2019-06-10T22:29:42.685Z,30.05
2019-06-10T22:32:14.157Z,30.63
2019-06-10T22:34:45.826Z,30.48
2019-06-10T22:37:17.391Z,30.74
2019-06-10T22:39:50.023Z,30.73
2019-06-10T22:42:22.341Z,30.18
2019-06-10T22:44:56.345Z,30.18
2019-06-10T22:47:26.790Z,30.03
2019-06-10T22:50:00.945Z,30.27
2019-06-10T22:52:32.668Z,30.15
2019-06-10T22:55:04.415Z,30.15
2019-06-10T22:57:37.588Z,29.78
2019-06-10T23:00:09.724Z,29.48
2019-06-10T23:02:43.714Z,29.77
2019-06-10T23:05:17.462Z,29.77
2019-06-10T23:07:50.786Z,29.84
2019-06-10T23:10:22.837Z,30.24
2019-06-10T23:12:56.340Z,30.24
2019-06-10T23:15:27.864Z,29.86
2019-06-10T23:18:00.305Z,29.62
2019-06-10T23:20:33.196Z,29.43
2019-06-10T23:23:05.031Z,29.74
2019-06-10T23:25:36.627Z,30.02
2019-06-10T23:28:08.007Z,30.02
2019-06-10T23:30:39.598Z,30.30
2019-06-10T23:33:12.492Z,30.62
2019-06-10T23:35:47.489Z,31.14
2019-06-10T23:38:17.699Z,31.14
2019-06-10T23:40:50.561Z,31.15
2019-06-10T23:43:22.647Z,30.99
2019-06-10T23:45:55.114Z,30.99
2019-06-10T23:48:26.804Z,31.94
2019-06-10T23:50:59.256Z,32.63
2019-06-10T23:53:32.813Z,32.57
2019-06-10T23:56:05.219Z,32.53
2019-06-10T23:58:36.853Z,33.12
